Time;durP1;ratioP1;P1;durP2;ratioP2;P2;SDS_P1;SDS_P2;PMS_P1;PMS_P2;Temp;Humidity;BMP_temperature;BMP_pressure;BME280_temperature;BME280_humidity;BME280_pressure;Samples;Min_cycle;Max_cycle;Signal;HPM_P1;HPM_P2
2022/01/17 00:01:29;;;;;;;8.85;3.95;;;;;;;;;;4992836;28;20033;-63
2022/01/17 00:03:56;;;;;;;8.98;4.05;;;;;;;;;;4996076;28;20026;-63
2022/01/17 00:06:23;;;;;;;10.52;4.82;;;;;;;;;;4994744;28;20103;-64
2022/01/17 00:08:50;;;;;;;10.18;4.63;;;;;;;;;;4978063;28;20054;-64
2022/01/17 00:11:18;;;;;;;9.50;4.30;;;;;;;;;;4994743;28;20021;-66
2022/01/17 00:13:46;;;;;;;9.50;3.90;;;;;;;;;;4998751;28;20481;-64
2022/01/17 00:16:28;;;;;;;8.88;3.75;;;;;;;;;;5000384;28;20061;-64
2022/01/17 00:19:34;;;;;;;9.38;4.35;;;;;;;;;;4984613;28;20070;-64
2022/01/17 00:21:55;;;;;;;9.70;4.55;;;;;;;;;;4995873;28;20103;-63
2022/01/17 00:24:22;;;;;;;9.80;4.00;;;;;;;;;;5000078;28;20510;-63
2022/01/17 00:26:52;;;;;;;9.55;3.88;;;;;;;;;;5002777;28;20045;-65
2022/01/17 00:29:28;;;;;;;9.68;3.83;;;;;;;;;;4998156;28;20022;-64
2022/01/17 00:31:57;;;;;;;9.95;3.65;;;;;;;;;;5004565;28;20113;-64
2022/01/17 00:34:27;;;;;;;11.65;4.57;;;;;;;;;;5000356;28;20029;-64
2022/01/17 00:36:55;;;;;;;10.18;3.95;;;;;;;;;;5000245;28;20075;-64
2022/01/17 00:39:21;;;;;;;9.43;3.70;;;;;;;;;;4999135;28;20130;-64
2022/01/17 00:41:51;;;;;;;10.75;4.20;;;;;;;;;;4982643;28;20073;-64
2022/01/17 00:44:23;;;;;;;9.15;3.72;;;;;;;;;;5000177;28;20037;-64
2022/01/17 00:46:51;;;;;;;9.10;3.83;;;;;;;;;;5002089;28;20045;-64
2022/01/17 00:49:19;;;;;;;9.52;3.90;;;;;;;;;;4997905;28;20033;-65
2022/01/17 00:51:47;;;;;;;9.98;3.55;;;;;;;;;;5001315;28;20046;-64
2022/01/17 00:54:13;;;;;;;9.38;4.10;;;;;;;;;;5003558;28;20763;-64
2022/01/17 00:56:40;;;;;;;10.18;3.88;;;;;;;;;;4997958;28;20120;-64
2022/01/17 00:59:08;;;;;;;8.80;3.70;;;;;;;;;;5000824;28;20057;-64
2022/01/17 01:01:35;;;;;;;8.82;3.28;;;;;;;;;;5000475;28;20029;-64
2022/01/17 01:04:02;;;;;;;10.43;3.65;;;;;;;;;;5001260;28;20134;-65
2022/01/17 01:06:30;;;;;;;10.43;4.53;;;;;;;;;;4997929;28;20607;-64
2022/01/17 01:08:58;;;;;;;9.27;3.85;;;;;;;;;;4999535;28;20078;-65
2022/01/17 01:11:26;;;;;;;9.52;3.72;;;;;;;;;;4994978;28;20095;-64
2022/01/17 01:13:55;;;;;;;9.48;3.78;;;;;;;;;;4984197;28;20035;-63
2022/01/17 01:16:30;;;;;;;9.20;3.67;;;;;;;;;;4983087;28;20025;-64
2022/01/17 01:30:00;;;;;;;8.48;3.30;;;;;;;;;;4995630;28;20125;-64
2022/01/17 01:32:38;;;;;;;8.07;3.03;;;;;;;;;;4998893;28;20049;-64
2022/01/17 01:35:10;;;;;;;6.65;2.28;;;;;;;;;;4996623;28;20040;-64
2022/01/17 01:37:38;;;;;;;7.72;2.60;;;;;;;;;;4983465;28;20099;-64
2022/01/17 01:40:07;;;;;;;8.18;3.05;;;;;;;;;;4995775;28;20038;-64
2022/01/17 01:42:35;;;;;;;8.38;3.00;;;;;;;;;;4994822;28;20578;-64
2022/01/17 01:45:02;;;;;;;7.88;2.85;;;;;;;;;;5001381;28;20508;-64
2022/01/17 01:47:31;;;;;;;7.90;2.50;;;;;;;;;;4992515;28;20060;-64
2022/01/17 01:49:58;;;;;;;7.38;2.50;;;;;;;;;;4978525;28;20107;-64
2022/01/17 01:52:25;;;;;;;7.35;2.53;;;;;;;;;;4960951;28;20113;-64
2022/01/17 01:54:52;;;;;;;8.73;2.78;;;;;;;;;;4960187;28;20033;-64
2022/01/17 01:57:18;;;;;;;9.00;2.85;;;;;;;;;;4947733;28;20046;-63
2022/01/17 01:59:45;;;;;;;8.07;2.75;;;;;;;;;;4967487;28;20129;-64
2022/01/17 02:02:13;;;;;;;6.30;2.40;;;;;;;;;;4961619;28;20040;-63
2022/01/17 02:04:39;;;;;;;6.28;2.13;;;;;;;;;;4962293;28;20917;-64
2022/01/17 02:07:07;;;;;;;7.82;2.40;;;;;;;;;;4963519;28;20461;-64
2022/01/17 02:09:38;;;;;;;7.28;2.40;;;;;;;;;;4960637;28;21185;-64
2022/01/17 02:12:06;;;;;;;9.23;2.30;;;;;;;;;;4962709;28;20033;-63
2022/01/17 02:14:32;;;;;;;7.40;2.40;;;;;;;;;;4959463;28;20036;-64
2022/01/17 02:17:02;;;;;;;7.03;2.20;;;;;;;;;;4964954;28;20025;-64
2022/01/17 02:19:30;;;;;;;6.32;2.30;;;;;;;;;;4963733;28;20072;-64
2022/01/17 02:21:56;;;;;;;6.78;1.98;;;;;;;;;;4964522;28;20038;-64
2022/01/17 02:24:23;;;;;;;5.78;2.08;;;;;;;;;;4960649;28;20025;-64
2022/01/17 02:26:51;;;;;;;8.15;1.92;;;;;;;;;;4975214;28;20145;-62
2022/01/17 02:29:19;;;;;;;6.13;1.77;;;;;;;;;;4999488;28;20057;-63
2022/01/17 02:31:49;;;;;;;5.63;1.83;;;;;;;;;;5005647;28;20067;-64
2022/01/17 02:34:17;;;;;;;5.78;1.65;;;;;;;;;;5006223;28;20117;-64
2022/01/17 02:36:44;;;;;;;5.95;1.98;;;;;;;;;;5007436;28;20425;-64
2022/01/17 02:39:13;;;;;;;6.63;2.00;;;;;;;;;;5006368;28;20574;-64
2022/01/17 02:41:40;;;;;;;5.65;1.60;;;;;;;;;;5007521;28;20033;-64
2022/01/17 02:44:07;;;;;;;5.15;1.73;;;;;;;;;;5008237;28;20583;-63
2022/01/17 02:46:35;;;;;;;5.53;1.73;;;;;;;;;;5000181;28;20041;-64
2022/01/17 02:49:06;;;;;;;4.10;1.63;;;;;;;;;;5007073;28;20483;-63
2022/01/17 02:51:35;;;;;;;6.40;2.08;;;;;;;;;;5003879;28;20029;-63
2022/01/17 02:54:03;;;;;;;6.40;2.00;;;;;;;;;;5007515;28;20065;-63
2022/01/17 02:56:34;;;;;;;5.93;1.88;;;;;;;;;;5003641;28;20061;-64
2022/01/17 02:59:02;;;;;;;6.03;1.73;;;;;;;;;;5005347;28;20546;-64
2022/01/17 03:01:31;;;;;;;6.22;1.77;;;;;;;;;;5001375;28;20357;-63
2022/01/17 03:03:58;;;;;;;5.03;1.70;;;;;;;;;;5005682;28;20394;-64
2022/01/17 03:06:27;;;;;;;6.70;1.90;;;;;;;;;;5004896;28;20037;-63
2022/01/17 03:08:55;;;;;;;5.60;2.10;;;;;;;;;;5005837;28;20092;-62
2022/01/17 03:11:24;;;;;;;4.65;1.50;;;;;;;;;;4999683;28;20092;-63
2022/01/17 03:13:52;;;;;;;5.65;1.67;;;;;;;;;;5011983;28;20112;-63
2022/01/17 03:16:19;;;;;;;5.95;1.63;;;;;;;;;;5001955;28;20049;-63
2022/01/17 03:18:50;;;;;;;6.32;2.08;;;;;;;;;;5006641;28;20056;-64
2022/01/17 03:21:16;;;;;;;6.82;1.85;;;;;;;;;;5006795;28;20095;-63
2022/01/17 03:23:42;;;;;;;;;;;;;;;;;;5008385;28;20034;-63
2022/01/17 03:26:09;;;;;;;5.38;1.90;;;;;;;;;;5006477;28;20261;-63
2022/01/17 03:28:38;;;;;;;5.65;1.90;;;;;;;;;;5004601;28;20157;-64
2022/01/17 03:31:06;;;;;;;5.55;1.60;;;;;;;;;;5008925;28;20495;-63
2022/01/17 03:33:33;;;;;;;5.15;1.65;;;;;;;;;;4999131;28;23318;-63
2022/01/17 03:36:01;;;;;;;5.60;1.88;;;;;;;;;;5009347;28;20496;-63
2022/01/17 03:38:32;;;;;;;4.40;1.60;;;;;;;;;;5006658;28;20033;-64
2022/01/17 03:41:00;;;;;;;5.10;1.73;;;;;;;;;;5005110;28;20026;-63
2022/01/17 03:43:27;;;;;;;5.30;1.80;;;;;;;;;;5005637;28;20033;-63
2022/01/17 03:45:57;;;;;;;5.60;1.55;;;;;;;;;;5012985;28;20441;-63
2022/01/17 03:48:24;;;;;;;5.15;1.50;;;;;;;;;;4989080;28;20073;-63
2022/01/17 03:50:51;;;;;;;5.13;1.58;;;;;;;;;;5013904;28;20037;-64
2022/01/17 03:53:19;;;;;;;4.80;1.50;;;;;;;;;;5012051;28;20029;-63
2022/01/17 03:55:47;;;;;;;4.80;1.40;;;;;;;;;;5004959;28;20729;-64
2022/01/17 03:58:14;;;;;;;4.40;1.40;;;;;;;;;;5005783;28;20021;-63
2022/01/17 04:00:46;;;;;;;3.88;1.40;;;;;;;;;;5008523;28;20095;-63
2022/01/17 04:03:14;;;;;;;4.10;1.50;;;;;;;;;;5008631;28;20037;-65
2022/01/17 04:05:40;;;;;;;4.63;1.60;;;;;;;;;;5007721;28;20038;-64
2022/01/17 04:08:07;;;;;;;3.85;1.27;;;;;;;;;;5010919;28;20041;-64
2022/01/17 04:10:35;;;;;;;4.22;1.30;;;;;;;;;;5008095;28;20040;-64
2022/01/17 04:13:05;;;;;;;5.28;1.67;;;;;;;;;;5008922;28;20030;-65
2022/01/17 04:15:32;;;;;;;4.75;1.52;;;;;;;;;;5006707;28;20029;-64
2022/01/17 04:18:01;;;;;;;4.60;1.40;;;;;;;;;;5006910;28;20053;-64
2022/01/17 04:20:31;;;;;;;4.43;1.42;;;;;;;;;;5007159;28;20125;-64
2022/01/17 04:23:06;;;;;;;5.47;1.70;;;;;;;;;;5010052;28;20040;-65
2022/01/17 04:25:35;;;;;;;4.78;1.42;;;;;;;;;;5009192;28;20111;-64
2022/01/17 04:28:04;;;;;;;6.20;1.70;;;;;;;;;;5006623;28;20029;-64
2022/01/17 04:30:32;;;;;;;6.78;1.80;;;;;;;;;;5005699;28;20069;-65
2022/01/17 04:32:59;;;;;;;5.82;1.70;;;;;;;;;;5011130;28;20029;-64
2022/01/17 04:35:26;;;;;;;4.30;1.48;;;;;;;;;;5006154;28;20483;-65
2022/01/17 04:38:00;;;;;;;5.90;1.50;;;;;;;;;;5012111;28;20033;-65
2022/01/17 04:40:34;;;;;;;6.70;1.67;;;;;;;;;;5012114;28;20041;-64
2022/01/17 04:43:13;;;;;;;7.28;1.52;;;;;;;;;;5008338;28;20629;-64
2022/01/17 04:45:41;;;;;;;;;;;;;;;;;;5005461;28;20037;-64
2022/01/17 04:48:08;;;;;;;5.40;1.45;;;;;;;;;;5012469;28;19917;-64
2022/01/17 04:50:36;;;;;;;5.07;1.50;;;;;;;;;;5002916;28;20052;-64
2022/01/17 04:53:03;;;;;;;5.10;1.70;;;;;;;;;;5008436;28;20041;-64
2022/01/17 04:55:31;;;;;;;5.07;1.70;;;;;;;;;;5007090;28;20013;-64
2022/01/17 04:58:00;;;;;;;8.20;2.97;;;;;;;;;;5007975;28;20084;-64
2022/01/17 05:00:28;;;;;;;7.05;2.53;;;;;;;;;;5002272;28;20045;-64
2022/01/17 05:02:54;;;;;;;4.78;1.75;;;;;;;;;;5012298;28;20030;-64
2022/01/17 05:05:21;;;;;;;6.22;1.75;;;;;;;;;;5006372;28;20153;-64
2022/01/17 05:07:49;;;;;;;3.60;1.48;;;;;;;;;;5008306;28;20037;-64
2022/01/17 05:10:16;;;;;;;3.83;1.40;;;;;;;;;;5006970;28;20056;-64
2022/01/17 05:12:46;;;;;;;4.93;1.33;;;;;;;;;;5007393;28;20120;-64
2022/01/17 05:19:47;;;;;;;5.32;1.50;;;;;;;;;;5029460;28;20111;-63
2022/01/17 05:21:01;;;;;;;5.20;1.75;;;;;;;;;;5029676;28;20122;-64
2022/01/17 05:23:28;;;;;;;5.07;1.58;;;;;;;;;;5027293;28;20119;-64
2022/01/17 05:25:57;;;;;;;4.95;1.70;;;;;;;;;;5029167;28;20452;-64
2022/01/17 05:28:24;;;;;;;4.35;1.48;;;;;;;;;;5007346;28;20041;-64
2022/01/17 05:30:51;;;;;;;5.05;1.50;;;;;;;;;;5009644;28;20837;-64
2022/01/17 05:33:18;;;;;;;5.65;1.88;;;;;;;;;;5004286;28;20423;-64
2022/01/17 05:35:45;;;;;;;4.80;1.50;;;;;;;;;;5028793;28;20899;-64
2022/01/17 05:38:15;;;;;;;5.03;1.58;;;;;;;;;;5026373;28;20566;-64
2022/01/17 05:40:43;;;;;;;7.82;2.42;;;;;;;;;;5007618;28;20971;-64
2022/01/17 05:43:11;;;;;;;6.90;2.40;;;;;;;;;;5024740;28;20036;-64
2022/01/17 05:45:38;;;;;;;5.40;1.75;;;;;;;;;;5022619;28;20410;-64
2022/01/17 05:48:04;;;;;;;4.18;1.42;;;;;;;;;;5011032;28;20184;-64
2022/01/17 05:50:31;;;;;;;5.32;1.80;;;;;;;;;;5021142;28;20025;-64
2022/01/17 05:52:59;;;;;;;4.60;1.45;;;;;;;;;;5024595;28;20388;-63
2022/01/17 05:55:25;;;;;;;6.78;1.90;;;;;;;;;;4999815;28;20441;-63
2022/01/17 05:57:52;;;;;;;6.38;2.13;;;;;;;;;;5004895;28;20043;-64
2022/01/17 06:00:19;;;;;;;6.28;1.85;;;;;;;;;;5003809;28;20032;-64
2022/01/17 06:02:48;;;;;;;4.65;1.58;;;;;;;;;;5002040;28;20037;-63
2022/01/17 06:05:16;;;;;;;5.70;1.80;;;;;;;;;;4996459;28;20400;-63
2022/01/17 06:07:44;;;;;;;4.13;1.50;;;;;;;;;;5001241;28;20029;-64
2022/01/17 06:10:11;;;;;;;4.47;1.50;;;;;;;;;;5002314;28;20025;-64
2022/01/17 06:12:40;;;;;;;4.43;1.70;;;;;;;;;;5000906;28;20029;-64
2022/01/17 06:15:07;;;;;;;6.70;1.50;;;;;;;;;;4999873;28;20137;-64
2022/01/17 06:17:53;;;;;;;5.65;1.65;;;;;;;;;;5000065;28;20038;-63
2022/01/17 06:20:20;;;;;;;4.07;1.30;;;;;;;;;;4996060;28;20064;-63
2022/01/17 06:22:47;;;;;;;6.95;1.70;;;;;;;;;;4998822;28;20108;-64
2022/01/17 06:25:14;;;;;;;5.88;1.70;;;;;;;;;;4998064;28;20437;-64
2022/01/17 06:27:41;;;;;;;5.75;1.88;;;;;;;;;;4996792;28;20057;-64
2022/01/17 06:30:09;;;;;;;6.53;2.05;;;;;;;;;;5005288;28;20077;-65
2022/01/17 06:32:40;;;;;;;4.97;1.73;;;;;;;;;;4999186;28;20062;-64
2022/01/17 06:35:07;;;;;;;5.57;1.90;;;;;;;;;;4998432;28;20168;-64
2022/01/17 06:37:38;;;;;;;5.22;1.95;;;;;;;;;;5000415;28;20496;-64
2022/01/17 06:40:22;;;;;;;6.95;2.20;;;;;;;;;;4997916;28;20499;-65
2022/01/17 06:42:50;;;;;;;6.57;2.03;;;;;;;;;;4998637;28;20033;-64
2022/01/17 06:45:19;;;;;;;5.60;1.95;;;;;;;;;;5002492;28;20022;-64
2022/01/17 06:47:46;;;;;;;5.82;2.10;;;;;;;;;;5000032;28;20116;-64
2022/01/17 06:50:13;;;;;;;6.80;2.22;;;;;;;;;;5000708;28;20086;-64
2022/01/17 06:52:42;;;;;;;6.47;2.50;;;;;;;;;;5006180;28;20034;-65
2022/01/17 06:55:09;;;;;;;5.68;2.10;;;;;;;;;;5004569;28;20034;-64
2022/01/17 06:57:48;;;;;;;7.50;2.55;;;;;;;;;;5004544;28;20021;-64
2022/01/17 07:00:16;;;;;;;5.88;2.17;;;;;;;;;;5004785;28;20060;-64
2022/01/17 07:02:43;;;;;;;6.22;2.03;;;;;;;;;;5004588;28;20037;-64
2022/01/17 07:05:10;;;;;;;7.15;2.20;;;;;;;;;;5001674;28;20041;-64
2022/01/17 07:07:36;;;;;;;7.70;2.47;;;;;;;;;;5001030;28;20037;-63
2022/01/17 07:10:05;;;;;;;7.75;2.90;;;;;;;;;;5011012;28;20041;-63
2022/01/17 07:12:37;;;;;;;8.65;3.20;;;;;;;;;;5006883;28;20044;-65
2022/01/17 07:15:06;;;;;;;8.65;3.50;;;;;;;;;;5004838;28;20040;-65
2022/01/17 07:17:34;;;;;;;9.85;3.33;;;;;;;;;;5004883;28;20048;-64
2022/01/17 07:20:00;;;;;;;7.93;3.20;;;;;;;;;;5008736;28;20128;-66
2022/01/17 07:22:30;;;;;;;8.18;3.25;;;;;;;;;;5001459;28;20022;-63
2022/01/17 07:24:58;;;;;;;7.70;2.90;;;;;;;;;;5009219;28;20544;-63
2022/01/17 07:27:26;;;;;;;8.15;3.05;;;;;;;;;;5007508;28;20060;-63
2022/01/17 07:29:52;;;;;;;7.40;2.90;;;;;;;;;;5007495;28;20026;-64
2022/01/17 07:32:20;;;;;;;7.35;2.67;;;;;;;;;;5001846;28;20025;-63
2022/01/17 07:34:46;;;;;;;7.13;2.67;;;;;;;;;;5007784;28;20021;-63
2022/01/17 07:37:13;;;;;;;7.97;3.00;;;;;;;;;;4999155;28;20032;-63
2022/01/17 07:39:40;;;;;;;8.00;2.75;;;;;;;;;;4997242;28;20034;-63
2022/01/17 07:42:07;;;;;;;7.80;2.88;;;;;;;;;;5001645;28;20061;-64
2022/01/17 07:44:34;;;;;;;8.50;3.33;;;;;;;;;;4998326;28;23258;-63
2022/01/17 07:47:02;;;;;;;8.13;3.15;;;;;;;;;;5002374;28;20025;-64
2022/01/17 07:49:31;;;;;;;8.15;3.22;;;;;;;;;;4998224;28;20057;-64
2022/01/17 07:52:05;;;;;;;7.55;3.20;;;;;;;;;;4998380;28;20121;-64
2022/01/17 07:54:35;;;;;;;8.40;3.40;;;;;;;;;;4996868;28;20118;-64
2022/01/17 07:57:03;;;;;;;9.30;3.40;;;;;;;;;;5000739;28;20030;-62
2022/01/17 07:59:31;;;;;;;9.05;3.60;;;;;;;;;;5001227;28;20712;-63
2022/01/17 08:02:00;;;;;;;8.68;3.70;;;;;;;;;;5002019;28;20473;-64
2022/01/17 08:04:31;;;;;;;9.65;3.55;;;;;;;;;;4995921;28;20053;-64
2022/01/17 08:06:59;;;;;;;9.25;4.25;;;;;;;;;;5006725;28;20033;-63
2022/01/17 08:09:31;;;;;;;8.38;3.90;;;;;;;;;;4996501;28;20038;-63
2022/01/17 08:12:00;;;;;;;10.88;3.97;;;;;;;;;;5008656;28;20108;-63
2022/01/17 08:14:27;;;;;;;9.55;4.10;;;;;;;;;;5007258;28;20026;-65
2022/01/17 08:16:55;;;;;;;8.70;3.97;;;;;;;;;;5005221;28;20052;-63
2022/01/17 08:19:24;;;;;;;10.05;4.97;;;;;;;;;;5004700;28;21188;-63
2022/01/17 08:21:53;;;;;;;13.95;7.60;;;;;;;;;;5007051;28;20485;-63
2022/01/17 08:24:20;;;;;;;12.15;6.10;;;;;;;;;;5001009;28;20056;-63
2022/01/17 08:26:47;;;;;;;10.55;5.28;;;;;;;;;;5005666;28;20149;-64
2022/01/17 08:29:15;;;;;;;9.43;4.35;;;;;;;;;;5007799;28;20040;-64
2022/01/17 08:31:46;;;;;;;11.38;4.50;;;;;;;;;;5001756;28;20033;-64
2022/01/17 08:34:15;;;;;;;10.85;3.95;;;;;;;;;;5011715;28;20034;-64
2022/01/17 08:36:45;;;;;;;10.05;4.13;;;;;;;;;;5009174;28;20025;-64
2022/01/17 08:39:15;;;;;;;10.60;3.50;;;;;;;;;;4995767;28;20045;-64
2022/01/17 08:41:42;;;;;;;8.68;3.47;;;;;;;;;;5010697;28;20487;-64
2022/01/17 08:44:12;;;;;;;9.60;3.53;;;;;;;;;;5009090;28;20510;-65
2022/01/17 08:46:39;;;;;;;8.95;3.58;;;;;;;;;;5004092;28;20037;-65
2022/01/17 08:49:05;;;;;;;11.32;4.50;;;;;;;;;;5008519;28;20420;-65
2022/01/17 08:51:31;;;;;;;12.48;4.95;;;;;;;;;;5008523;28;22076;-64
2022/01/17 08:53:58;;;;;;;12.52;5.20;;;;;;;;;;5008375;28;20059;-65
2022/01/17 08:56:27;;;;;;;;;;;;;;;;;;4989344;28;20033;-64
2022/01/17 08:58:55;;;;;;;10.95;5.18;;;;;;;;;;5015041;28;19964;-65
2022/01/17 09:01:23;;;;;;;12.02;5.82;;;;;;;;;;5004637;28;20053;-65
2022/01/17 09:03:51;;;;;;;13.27;5.70;;;;;;;;;;5005126;28;20476;-64
2022/01/17 09:06:20;;;;;;;13.23;6.68;;;;;;;;;;5002166;28;20507;-65
2022/01/17 09:08:47;;;;;;;17.63;7.90;;;;;;;;;;5006229;28;20934;-65
2022/01/17 09:11:13;;;;;;;18.88;10.05;;;;;;;;;;5001034;28;20025;-64
2022/01/17 09:13:43;;;;;;;19.38;10.75;;;;;;;;;;5004947;28;20040;-65
2022/01/17 09:16:11;;;;;;;18.83;11.65;;;;;;;;;;5011076;28;20632;-65
2022/01/17 09:18:40;;;;;;;25.73;12.68;;;;;;;;;;5004273;28;20029;-64
2022/01/17 09:21:09;;;;;;;22.38;13.05;;;;;;;;;;5010186;28;20492;-65
2022/01/17 09:23:38;;;;;;;22.40;12.98;;;;;;;;;;5006438;28;20037;-65
2022/01/17 09:26:07;;;;;;;21.77;11.68;;;;;;;;;;5002360;28;20034;-65
2022/01/17 09:28:33;;;;;;;22.83;13.77;;;;;;;;;;5006993;28;20447;-65
2022/01/17 09:31:00;;;;;;;19.08;11.52;;;;;;;;;;5012527;28;20026;-65
2022/01/17 09:33:27;;;;;;;23.42;11.90;;;;;;;;;;5001313;28;20124;-65
2022/01/17 09:35:54;;;;;;;20.00;11.52;;;;;;;;;;5011464;28;20029;-65
2022/01/17 09:38:21;;;;;;;20.27;10.65;;;;;;;;;;5005664;28;20172;-65
2022/01/17 09:40:48;;;;;;;19.33;9.95;;;;;;;;;;5009888;28;20025;-65
2022/01/17 09:43:15;;;;;;;17.73;7.60;;;;;;;;;;5007109;28;20045;-65
2022/01/17 09:45:41;;;;;;;12.85;5.97;;;;;;;;;;5010798;28;20156;-66
2022/01/17 09:48:09;;;;;;;;;;;;;;;;;;4999364;28;20037;-65
2022/01/17 09:50:46;;;;;;;;;;;;;;;;;;4996218;28;19921;-65
2022/01/17 09:53:17;;;;;;;12.60;5.40;;;;;;;;;;5000812;28;19917;-66
2022/01/17 09:55:43;;;;;;;14.95;7.15;;;;;;;;;;4999456;28;20013;-65
2022/01/17 09:58:11;;;;;;;15.20;8.13;;;;;;;;;;4980146;28;20029;-66
2022/01/17 10:00:40;;;;;;;12.50;6.75;;;;;;;;;;4980585;28;20037;-66
2022/01/17 10:03:08;;;;;;;12.05;6.10;;;;;;;;;;5005236;28;20049;-66
2022/01/17 10:05:35;;;;;;;12.52;5.65;;;;;;;;;;4997834;28;20080;-66
2022/01/17 10:08:04;;;;;;;11.48;5.75;;;;;;;;;;5002687;28;20046;-66
2022/01/17 10:10:44;;;;;;;12.25;5.63;;;;;;;;;;4997460;28;20114;-66
2022/01/17 10:13:13;;;;;;;9.98;4.13;;;;;;;;;;4998792;28;20135;-66
2022/01/17 10:15:46;;;;;;;10.05;4.82;;;;;;;;;;4997675;28;20029;-66
2022/01/17 10:18:31;;;;;;;9.52;4.88;;;;;;;;;;4997640;28;20034;-65
2022/01/17 10:21:06;;;;;;;9.98;4.82;;;;;;;;;;5000582;28;20124;-66
2022/01/17 10:27:02;;;;;;;12.05;6.22;;;;;;;;;;4996178;28;20195;-66
2022/01/17 10:35:13;;;;;;;10.60;5.57;;;;;;;;;;4990613;28;19956;-66
2022/01/17 10:37:40;;;;;;;9.60;3.88;;;;;;;;;;4992289;28;20757;-66
2022/01/17 10:40:15;;;;;;;8.15;3.38;;;;;;;;;;4996586;28;20073;-66
2022/01/17 10:42:48;;;;;;;9.02;4.15;;;;;;;;;;4991170;28;20048;-66
2022/01/17 10:45:30;;;;;;;7.80;3.15;;;;;;;;;;4988575;28;20528;-67
2022/01/17 10:47:59;;;;;;;6.40;2.58;;;;;;;;;;4991435;28;20502;-66
2022/01/17 10:50:31;;;;;;;7.40;3.20;;;;;;;;;;4974182;28;20041;-66
2022/01/17 10:53:02;;;;;;;6.82;2.38;;;;;;;;;;4991425;28;20022;-68
2022/01/17 10:55:35;;;;;;;6.57;2.50;;;;;;;;;;4991921;28;20144;-67
2022/01/17 10:58:10;;;;;;;8.00;3.80;;;;;;;;;;4993008;28;20507;-66
2022/01/17 11:00:38;;;;;;;9.07;3.80;;;;;;;;;;4984830;28;20285;-66
2022/01/17 11:03:07;;;;;;;8.02;3.33;;;;;;;;;;4998317;28;20038;-66
2022/01/17 11:05:40;;;;;;;9.45;4.30;;;;;;;;;;4999197;28;20030;-66
2022/01/17 11:08:09;;;;;;;10.60;5.80;;;;;;;;;;5001444;28;20049;-66
2022/01/17 11:10:38;;;;;;;9.25;4.10;;;;;;;;;;5000523;28;20502;-66
2022/01/17 11:13:08;;;;;;;12.60;7.38;;;;;;;;;;5005222;28;20048;-66
2022/01/17 11:15:38;;;;;;;10.65;4.00;;;;;;;;;;4995225;28;20614;-66
2022/01/17 11:18:23;;;;;;;11.10;5.80;;;;;;;;;;4999949;28;20123;-66
2022/01/17 11:20:51;;;;;;;10.00;5.22;;;;;;;;;;5002941;28;20033;-66
2022/01/17 11:23:21;;;;;;;8.20;3.25;;;;;;;;;;5001402;28;20029;-66
2022/01/17 11:25:52;;;;;;;8.25;3.00;;;;;;;;;;5002159;28;20041;-67
2022/01/17 11:28:22;;;;;;;6.88;2.80;;;;;;;;;;4996928;28;20555;-69
2022/01/17 11:30:52;;;;;;;5.50;2.00;;;;;;;;;;5004145;28;20033;-68
2022/01/17 11:33:20;;;;;;;6.13;2.10;;;;;;;;;;4999767;28;20057;-65
2022/01/17 11:35:51;;;;;;;7.80;3.38;;;;;;;;;;5000024;28;20030;-66
2022/01/17 11:38:40;;;;;;;12.48;5.10;;;;;;;;;;4999367;28;20037;-67
2022/01/17 11:41:21;;;;;;;8.95;3.60;;;;;;;;;;5005095;28;20439;-67
2022/01/17 11:43:55;;;;;;;11.20;3.70;;;;;;;;;;5007806;28;20033;-67
2022/01/17 11:46:27;;;;;;;6.70;2.55;;;;;;;;;;4985187;28;20088;-66
2022/01/17 11:49:02;;;;;;;7.10;2.80;;;;;;;;;;4998198;28;20524;-65
2022/01/17 11:51:39;;;;;;;6.55;2.50;;;;;;;;;;4992879;28;20057;-68
2022/01/17 11:54:26;;;;;;;9.50;3.50;;;;;;;;;;4999967;28;20044;-66
2022/01/17 11:57:08;;;;;;;7.07;2.50;;;;;;;;;;5001002;28;20107;-66
2022/01/17 11:59:51;;;;;;;8.98;2.90;;;;;;;;;;5014102;28;20029;-66
2022/01/17 12:02:36;;;;;;;8.23;3.10;;;;;;;;;;5001440;28;20057;-66
2022/01/17 12:05:13;;;;;;;5.90;2.07;;;;;;;;;;5005037;28;20040;-66
2022/01/17 12:07:53;;;;;;;6.65;2.28;;;;;;;;;;5002811;28;20049;-67
2022/01/17 12:10:22;;;;;;;7.07;2.60;;;;;;;;;;4999223;28;20033;-67
2022/01/17 12:13:08;;;;;;;7.70;2.75;;;;;;;;;;5003763;28;20033;-67
2022/01/17 12:15:54;;;;;;;8.75;3.80;;;;;;;;;;5003686;28;20159;-68
2022/01/17 12:18:28;;;;;;;7.65;2.90;;;;;;;;;;5003629;28;20025;-67
2022/01/17 12:20:57;;;;;;;6.72;2.47;;;;;;;;;;5005445;28;20091;-68
2022/01/17 12:23:26;;;;;;;6.25;2.20;;;;;;;;;;5000392;28;20874;-67
2022/01/17 12:25:53;;;;;;;8.35;2.47;;;;;;;;;;5006795;28;20040;-67
2022/01/17 12:28:20;;;;;;;7.90;2.85;;;;;;;;;;5002913;28;20041;-67
2022/01/17 12:30:53;;;;;;;6.63;2.10;;;;;;;;;;5005737;28;20029;-67
2022/01/17 12:33:40;;;;;;;5.20;1.90;;;;;;;;;;5005242;28;20482;-67
2022/01/17 12:36:27;;;;;;;6.43;2.10;;;;;;;;;;5003484;28;20045;-67
2022/01/17 12:39:10;;;;;;;5.13;2.05;;;;;;;;;;5004645;28;20037;-67
2022/01/17 12:41:39;;;;;;;5.97;1.90;;;;;;;;;;5002835;28;20033;-67
2022/01/17 12:44:26;;;;;;;6.70;2.10;;;;;;;;;;5007483;28;20056;-67
2022/01/17 12:46:54;;;;;;;5.82;2.08;;;;;;;;;;5004296;28;20053;-67
2022/01/17 12:49:21;;;;;;;6.22;2.10;;;;;;;;;;4997117;28;20722;-68
2022/01/17 12:51:49;;;;;;;8.07;2.25;;;;;;;;;;5007032;28;20038;-67
2022/01/17 12:54:19;;;;;;;7.65;2.25;;;;;;;;;;5006184;28;20134;-69
2022/01/17 12:56:48;;;;;;;6.35;2.33;;;;;;;;;;5005756;28;20026;-71
2022/01/17 12:59:18;;;;;;;6.22;2.05;;;;;;;;;;5003327;28;20048;-69
2022/01/17 13:01:50;;;;;;;5.03;1.83;;;;;;;;;;5007043;28;20472;-72
2022/01/17 13:04:17;;;;;;;5.55;1.92;;;;;;;;;;5005789;28;20041;-67
2022/01/17 13:06:46;;;;;;;6.07;2.00;;;;;;;;;;5005298;28;20753;-68
2022/01/17 13:09:14;;;;;;;8.05;1.83;;;;;;;;;;4980927;28;20083;-66
2022/01/17 13:11:46;;;;;;;5.88;1.90;;;;;;;;;;5011266;28;20534;-67
2022/01/17 13:14:17;;;;;;;5.22;1.70;;;;;;;;;;4986072;28;20034;-68
2022/01/17 13:16:45;;;;;;;5.40;1.75;;;;;;;;;;5003182;28;20041;-67
2022/01/17 13:19:14;;;;;;;4.88;1.90;;;;;;;;;;5008986;28;20029;-67
2022/01/17 13:21:42;;;;;;;5.70;2.00;;;;;;;;;;5006787;28;20064;-67
2022/01/17 13:26:52;;;;;;;9.35;3.47;;;;;;;;;;5007581;28;20079;-68
2022/01/17 13:29:19;;;;;;;6.90;2.75;;;;;;;;;;5005317;28;20453;-67
2022/01/17 13:31:47;;;;;;;6.57;2.50;;;;;;;;;;5004344;28;20022;-69
2022/01/17 13:34:13;;;;;;;6.78;2.67;;;;;;;;;;5005188;28;20380;-68
2022/01/17 13:36:40;;;;;;;7.28;2.47;;;;;;;;;;5008606;28;20017;-67
2022/01/17 13:39:12;;;;;;;6.55;2.60;;;;;;;;;;5007170;28;20485;-68
2022/01/17 13:41:50;;;;;;;9.05;3.33;;;;;;;;;;5007178;28;20584;-67
2022/01/17 13:44:29;;;;;;;7.85;2.97;;;;;;;;;;4999759;28;20026;-68
2022/01/17 13:47:00;;;;;;;10.77;3.35;;;;;;;;;;5003455;28;20040;-67
2022/01/17 13:49:33;;;;;;;7.68;2.65;;;;;;;;;;4997711;28;20082;-68
2022/01/17 13:52:00;;;;;;;6.03;2.20;;;;;;;;;;5004859;28;20025;-68
2022/01/17 13:54:31;;;;;;;5.53;2.00;;;;;;;;;;5006316;28;20068;-68
2022/01/17 13:57:01;;;;;;;6.63;2.20;;;;;;;;;;5004731;28;20036;-67
2022/01/17 13:59:28;;;;;;;6.97;2.45;;;;;;;;;;5002550;28;20035;-68
2022/01/17 14:01:56;;;;;;;6.78;2.60;;;;;;;;;;4988533;28;20047;-67
2022/01/17 14:04:29;;;;;;;6.70;2.30;;;;;;;;;;5002675;28;20042;-67
2022/01/17 14:06:57;;;;;;;6.75;2.80;;;;;;;;;;5003755;28;20141;-69
2022/01/17 14:09:36;;;;;;;5.07;2.13;;;;;;;;;;5002589;28;20060;-67
2022/01/17 14:12:12;;;;;;;5.88;2.20;;;;;;;;;;5008103;28;20436;-69
2022/01/17 14:14:39;;;;;;;5.90;2.22;;;;;;;;;;5005595;28;20112;-67
2022/01/17 14:17:06;;;;;;;6.50;2.33;;;;;;;;;;5000123;28;20025;-69
2022/01/17 14:19:33;;;;;;;5.15;2.10;;;;;;;;;;5006104;28;20050;-68
2022/01/17 14:22:03;;;;;;;5.53;2.28;;;;;;;;;;5006963;28;20029;-70
2022/01/17 14:24:38;;;;;;;7.03;3.00;;;;;;;;;;5004380;28;20472;-69
2022/01/17 14:27:31;;;;;;;8.55;3.92;;;;;;;;;;5001350;28;20053;-68
2022/01/17 14:30:01;;;;;;;6.75;2.50;;;;;;;;;;5002423;28;20551;-69
2022/01/17 14:32:27;;;;;;;7.20;2.92;;;;;;;;;;5000944;28;20045;-68
2022/01/17 14:34:55;;;;;;;6.75;2.90;;;;;;;;;;5003035;28;20049;-68
2022/01/17 14:37:23;;;;;;;7.30;2.70;;;;;;;;;;5001128;28;20396;-68
2022/01/17 14:40:05;;;;;;;6.72;2.63;;;;;;;;;;5007685;28;20417;-68
2022/01/17 14:42:47;;;;;;;6.90;2.65;;;;;;;;;;5000301;28;20074;-68
2022/01/17 14:45:18;;;;;;;6.53;2.20;;;;;;;;;;5002625;28;20049;-68
2022/01/17 14:47:47;;;;;;;5.82;2.33;;;;;;;;;;5000724;28;20036;-68
2022/01/17 14:50:17;;;;;;;6.43;2.25;;;;;;;;;;5002659;28;20674;-68
2022/01/17 14:52:44;;;;;;;6.05;2.38;;;;;;;;;;5004609;28;20452;-65
2022/01/17 15:00:57;;;;;;;6.18;2.50;;;;;;;;;;5005838;28;20558;-66
2022/01/17 15:03:31;;;;;;;6.55;3.03;;;;;;;;;;5003369;28;20029;-67
2022/01/17 15:05:58;;;;;;;7.57;3.08;;;;;;;;;;5001358;28;20029;-66
2022/01/17 15:08:25;;;;;;;7.30;2.92;;;;;;;;;;4999329;28;20032;-67
2022/01/17 15:10:52;;;;;;;10.52;2.97;;;;;;;;;;5008154;28;20518;-67
2022/01/17 15:13:21;;;;;;;7.97;3.17;;;;;;;;;;5000401;28;20025;-68
2022/01/17 15:15:49;;;;;;;8.80;3.58;;;;;;;;;;4998359;28;20040;-68
2022/01/17 15:18:16;;;;;;;10.05;4.40;;;;;;;;;;4995202;28;20033;-68
2022/01/17 15:20:46;;;;;;;10.23;4.18;;;;;;;;;;4999356;28;20072;-70
2022/01/17 15:23:13;;;;;;;11.02;4.68;;;;;;;;;;4998863;28;20135;-68
2022/01/17 15:25:41;;;;;;;8.63;3.80;;;;;;;;;;5003585;28;20029;-68
2022/01/17 15:28:09;;;;;;;10.05;4.35;;;;;;;;;;4995924;28;20038;-67